Etusivu
METAR-TAF:

METAR-TAF

Lentoasemat :

Kittilä, Suomi

Kittilän lentoasema

Leveyspiiri: 67-42N, Pituuspiiri: 024-51E, korkeus merenpinnasta: 196 m

Tämänhetkinen sää

Tämä raportti tehtiin 11 minuuttia sitten, kello 18.50 UTC
Tuuli 2 kn idästä
Lämpötila 9°C
Kosteus 61%
Ilmanpaine 1005 hPa
Näkyvyys 10 km tai enemmän
Pilvistä 3700 ft:n korkeudessa

METAR: EFKT 231850Z AUTO 08002KT 9999 OVC037 09/02 Q1005

Aika: 22:01 (19:01 UTC)

Sääennuste

Tämä raportti tehtiin 4 tuntia ja 38 minuuttia sitten, kello 14.23 UTC
Ennuste voimassa 23. päivästä klo 15 UTC - 23. päivään klo 18 UTC
Tuuli 4 kn pohjoisesta
Näkyvyys 10 km tai enemmän
Hajanaisia pilviä 3500 ft:n korkeudessa
Hajonneita pilviä 7000 ft:n korkeudessa

TAF: EFKT 231423Z 2315/2318 36004KT 9999 SCT035 BKN070

Säähavainnot ja -ennusteet yli 4000 lentoasemalta (METAR- ja TAF-raportit).

Käytössä olevat sääasemat on merkitty karttaan keltaisilla ja punaisilla pisteillä.

Aseta hiiri pisteen päälle nähdäksesi sääaseman nimen.

Klikkaa sitten nähdäksesi säähavainnot ja -ennusteet.

Kartan vaihtaminen: klikkaa mustalla rastilla varustettuja vihreitä pisteitä, niin voit zoomata sisään; viivalla varustettua vihreää pistettä, niin voit zoomata ulos tai vihreitä nuolia, niin pääset viereisille kartoille.


METAR-TAF: